CheckWX is a tool to help pilots better visualize weather data.  It is not intended as a substitute for an official pre-flight weather briefing.

12:22:47 UTC

KCAK TAF
Akron-Canton Regional Airport
Akron, Ohio, USA
KCAK 271128Z 2712/2812 22005KT P6SM SCT060

Jun-27@
12:00 UTC

Jun-27 @ 12:00 UTC

Jun-28@
12:00 UTC

Jun-28 @ 12:00 UTC

KCAK 271128Z 2712/2812 22005KT P6SM SCT060
Wind
  • 220° at 5 KTS
Cloud Levels
  • Scattered at 6,000' AGL